CheckWX is a tool to help pilots better visualize weather data.  It is not intended as a substitute for an official pre-flight weather briefing.

08:54:47 UTC

KMCB TAF
Mc Comb / Pike County / John E Lewis Field Airport
Mc Comb, Mississippi, USA
KMCB 180542Z 1806/1906 14006KT P6SM FEW029 SCT050 BKN100 FM180900 00000KT P6SM VCSH OVC015 FM181100 00000KT 4SM BR VCTS OVC003CB FM181300 VRB03KT P6SM VCTS OVC020CB FM181700 25006KT P6SM BKN050

Jun-18@
06:00 UTC

Jun-18 @ 06:00 UTC

Jun-18@
09:00 UTC

Jun-18 @ 09:00 UTC

KMCB 180542Z 1806/1906 14006KT P6SM FEW029 SCT050 BKN100
Wind
  • 140° at 6 KTS
Cloud Levels
  • Few at 2,900' AGL
  • Scattered at 5,000' AGL
  • Broken at 10,000' AGL

Jun-18@
09:00 UTC

Jun-18 @ 09:00 UTC

Jun-18@
11:00 UTC

Jun-18 @ 11:00 UTC

FM180900 00000KT P6SM VCSH OVC015

From

From Standard forecast or significant change

Cloud Levels
  • Overcast at 1,500' AGL

Jun-18@
11:00 UTC

Jun-18 @ 11:00 UTC

Jun-18@
13:00 UTC

Jun-18 @ 13:00 UTC

FM181100 00000KT 4SM BR VCTS OVC003CB

From

From Standard forecast or significant change

Conditions
Mist, Area Thunderstorm
Cloud Levels
  • Overcast at 300' AGL

Jun-18@
13:00 UTC

Jun-18 @ 13:00 UTC

Jun-18@
17:00 UTC

Jun-18 @ 17:00 UTC

FM181300 VRB03KT P6SM VCTS OVC020CB

From

From Standard forecast or significant change

Wind
  • Variable at 3 KTS
Conditions
Area Thunderstorm
Cloud Levels
  • Overcast at 2,000' AGL

Jun-18@
17:00 UTC

Jun-18 @ 17:00 UTC

Jun-19@
06:00 UTC

Jun-19 @ 06:00 UTC

FM181700 25006KT P6SM BKN050

From

From Standard forecast or significant change

Wind
  • 250° at 6 KTS
Cloud Levels
  • Broken at 5,000' AGL